Time;durP1;ratioP1;P1;durP2;ratioP2;P2;SDS_P1;SDS_P2;PMS_P1;PMS_P2;Temp;Humidity;BMP_temperature;BMP_pressure;BME280_temperature;BME280_humidity;BME280_pressure;Samples;Min_cycle;Max_cycle;Signal;HPM_P1;HPM_P2
2024/01/03 12:51:59;;;;;;;11.07;1.67;;;12.00;99.90;;;;;;5068746;28;21060;-72
2024/01/03 12:54:25;;;;;;;9.97;1.83;;;11.70;99.90;;;;;;5067368;28;20168;-73
2024/01/03 12:56:51;;;;;;;7.50;1.80;;;11.60;99.90;;;;;;5068324;28;20176;-74
2024/01/03 12:59:17;;;;;;;9.80;2.00;;;11.30;99.90;;;;;;5068537;28;20176;-76
2024/01/03 13:01:43;;;;;;;6.43;1.70;;;11.30;99.90;;;;;;5067933;28;20619;-72
2024/01/03 13:04:09;;;;;;;9.23;1.83;;;11.30;99.90;;;;;;5067967;28;20181;-71
2024/01/03 13:06:34;;;;;;;10.50;2.00;;;11.30;99.90;;;;;;5068172;28;20165;-74
2024/01/03 13:09:04;;;;;;;7.77;2.60;;;11.10;99.90;;;;;;5068139;28;20172;-74
2024/01/03 13:11:33;;;;;;;10.70;2.30;;;10.90;99.90;;;;;;5067469;28;20273;-73
2024/01/03 13:13:59;;;;;;;6.23;1.90;;;10.90;99.90;;;;;;5065674;28;20668;-77
2024/01/03 13:16:24;;;;;;;6.73;1.80;;;10.80;99.90;;;;;;5051520;28;20201;-75
2024/01/03 13:18:50;;;;;;;8.43;2.13;;;10.80;99.90;;;;;;5048343;28;20170;-74
2024/01/03 13:21:16;;;;;;;6.97;2.20;;;10.80;99.90;;;;;;5048158;28;20216;-73
2024/01/03 13:23:43;;;;;;;8.43;2.07;;;11.10;99.90;;;;;;5047825;28;20174;-72
2024/01/03 13:26:09;;;;;;;8.97;2.17;;;11.80;99.90;;;;;;5047851;28;20268;-74
2024/01/03 13:28:35;;;;;;;6.00;2.57;;;12.40;99.90;;;;;;5047804;28;20207;-73
2024/01/03 13:31:01;;;;;;;9.87;3.47;;;12.10;99.90;;;;;;5047785;28;20240;-74
2024/01/03 13:33:27;;;;;;;8.73;4.30;;;12.10;99.90;;;;;;5047740;28;20179;-72
2024/01/03 13:35:52;;;;;;;13.00;4.10;;;12.00;99.90;;;;;;5052896;28;20176;-76
2024/01/03 13:38:18;;;;;;;12.33;4.37;;;11.80;99.90;;;;;;5048362;28;20243;-73
2024/01/03 13:40:46;;;;;;;11.47;4.47;;;11.60;99.90;;;;;;5047538;28;20215;-74
2024/01/03 13:43:12;;;;;;;10.87;4.17;;;11.50;99.90;;;;;;5050780;28;20537;-74
2024/01/03 13:45:39;;;;;;;12.40;3.90;;;11.40;99.90;;;;;;5067067;28;20226;-75
2024/01/03 13:48:05;;;;;;;12.23;3.73;;;11.20;99.90;;;;;;5067199;28;20669;-72
2024/01/03 13:50:31;;;;;;;9.63;3.93;;;11.10;99.90;;;;;;5065634;28;20248;-73
2024/01/03 13:52:57;;;;;;;9.63;3.80;;;11.10;99.90;;;;;;5061105;28;20539;-72
2024/01/03 13:55:23;;;;;;;10.93;4.60;;;11.10;99.90;;;;;;5051251;28;20210;-74
2024/01/03 13:57:49;;;;;;;7.10;4.20;;;11.20;99.90;;;;;;5066989;28;20273;-74
2024/01/03 14:00:17;;;;;;;9.07;4.27;;;11.20;99.90;;;;;;5066868;28;20179;-75
2024/01/03 14:02:43;;;;;;;8.87;3.73;;;12.30;99.90;;;;;;5057425;28;20685;-74
2024/01/03 14:05:10;;;;;;;10.40;5.50;;;13.50;99.90;;;;;;5042127;28;20648;-75
2024/01/03 14:07:36;;;;;;;12.17;6.47;;;14.30;99.90;;;;;;5033617;28;20166;-73
2024/01/03 14:10:02;;;;;;;15.77;7.05;;;15.30;99.90;;;;;;5032354;28;20263;-69
2024/01/03 14:12:28;;;;;;;15.82;6.13;;;15.40;99.90;;;;;;5043269;28;20263;-70
2024/01/03 14:14:54;;;;;;;16.58;5.95;;;15.50;99.90;;;;;;5049109;28;20184;-74
2024/01/03 14:17:20;;;;;;;10.77;4.40;;;14.90;99.90;;;;;;5047678;28;20648;-73
2024/01/03 14:19:47;;;;;;;20.55;4.80;;;14.60;99.90;;;;;;5053348;28;20623;-72
2024/01/03 14:22:13;;;;;;;19.77;4.60;;;14.10;99.90;;;;;;5052909;28;20185;-74
2024/01/03 14:24:39;;;;;;;24.63;5.05;;;13.80;99.90;;;;;;5053190;28;20264;-73
2024/01/03 14:27:05;;;;;;;18.48;4.30;;;13.00;99.90;;;;;;5053116;28;20302;-73
2024/01/03 14:29:31;;;;;;;22.17;4.78;;;12.80;99.90;;;;;;5053005;28;20512;-73
2024/01/03 14:31:57;;;;;;;18.98;4.95;;;13.00;99.90;;;;;;5048650;28;20220;-73
2024/01/03 14:34:23;;;;;;;14.30;4.90;;;12.70;99.90;;;;;;5052858;28;20192;-73
2024/01/03 14:37:05;;;;;;;20.50;5.13;;;12.60;99.90;;;;;;5053122;28;20644;-73
2024/01/03 14:39:32;;;;;;;18.43;5.13;;;12.30;99.90;;;;;;5052056;28;20180;-72
2024/01/03 14:41:58;;;;;;;13.77;4.53;;;12.10;99.90;;;;;;5052947;28;20173;-73
2024/01/03 14:44:24;;;;;;;17.40;5.13;;;11.90;99.90;;;;;;5052649;28;20176;-71
2024/01/03 14:46:50;;;;;;;15.23;5.13;;;11.70;99.90;;;;;;5052744;28;20177;-75
2024/01/03 14:49:16;;;;;;;19.53;5.20;;;11.50;99.90;;;;;;5052920;28;20226;-75
2024/01/03 14:51:41;;;;;;;17.23;5.17;;;11.40;99.90;;;;;;5052762;28;20674;-75
2024/01/03 14:54:07;;;;;;;14.43;4.93;;;11.30;99.90;;;;;;5052897;28;20648;-76
2024/01/03 14:56:33;;;;;;;16.17;5.17;;;11.20;99.90;;;;;;5052944;28;20211;-76
2024/01/03 14:58:58;;;;;;;14.90;5.00;;;11.10;99.90;;;;;;5052685;28;20248;-75
2024/01/03 15:01:26;;;;;;;11.97;4.63;;;11.00;99.90;;;;;;5052958;28;20177;-74
2024/01/03 15:03:53;;;;;;;8.23;3.80;;;10.90;99.90;;;;;;5052629;28;20185;-74
2024/01/03 15:06:20;;;;;;;11.37;4.07;;;10.80;99.90;;;;;;5052599;28;20165;-72
2024/01/03 15:08:45;;;;;;;13.37;4.20;;;10.80;99.90;;;;;;5052515;28;20165;-72
2024/01/03 15:11:11;;;;;;;10.47;4.30;;;10.70;99.90;;;;;;5052498;28;20735;-72
2024/01/03 15:13:38;;;;;;;12.33;4.03;;;10.60;99.90;;;;;;5051581;28;20177;-74
2024/01/03 15:16:04;;;;;;;10.67;4.00;;;11.10;99.90;;;;;;5038334;28;20189;-73
2024/01/03 15:18:29;;;;;;;9.83;3.80;;;10.60;99.90;;;;;;5041387;28;20227;-73
2024/01/03 15:20:55;;;;;;;8.33;3.50;;;10.50;99.90;;;;;;5052368;28;20566;-73
2024/01/03 15:23:22;;;;;;;8.63;3.53;;;10.50;99.90;;;;;;5049244;28;20169;-73
2024/01/03 15:25:48;;;;;;;11.40;4.10;;;10.40;99.90;;;;;;5052155;28;20602;-75
2024/01/03 15:28:15;;;;;;;8.67;3.90;;;10.40;99.90;;;;;;5052117;28;20173;-75
2024/01/03 15:30:42;;;;;;;10.60;3.80;;;10.30;99.90;;;;;;5050747;28;20270;-74
2024/01/03 15:33:08;;;;;;;6.83;3.60;;;10.30;99.90;;;;;;5052194;28;20192;-73
2024/01/03 15:35:35;;;;;;;9.93;3.90;;;10.30;99.90;;;;;;5051972;28;20181;-72
2024/01/03 15:38:01;;;;;;;7.30;3.60;;;10.20;99.90;;;;;;5041962;28;20279;-72
2024/01/03 15:40:26;;;;;;;7.97;3.40;;;10.20;99.90;;;;;;5032478;28;20533;-72
2024/01/03 15:42:53;;;;;;;9.07;3.87;;;10.20;99.90;;;;;;5035824;28;20652;-73
2024/01/03 15:45:19;;;;;;;9.97;3.60;;;10.20;99.90;;;;;;5030875;28;20570;-74
2024/01/03 15:47:45;;;;;;;10.53;3.60;;;10.10;99.90;;;;;;5031848;28;20181;-74
2024/01/03 15:50:12;;;;;;;9.47;3.47;;;10.00;99.90;;;;;;5031523;28;20225;-72
2024/01/03 15:52:39;;;;;;;6.13;2.93;;;10.00;99.90;;;;;;5031755;28;20177;-73
2024/01/03 15:55:05;;;;;;;8.87;3.20;;;10.00;99.90;;;;;;5031670;28;20182;-73
2024/01/03 15:57:31;;;;;;;4.77;2.30;;;9.90;99.90;;;;;;5032035;28;20174;-72
2024/01/03 15:59:57;;;;;;;6.10;2.63;;;9.80;99.90;;;;;;5031585;28;20181;-73
2024/01/03 16:02:23;;;;;;;8.93;3.07;;;9.80;99.90;;;;;;5031608;28;20177;-73
2024/01/03 16:04:49;;;;;;;9.07;2.70;;;9.70;99.90;;;;;;5031525;28;20703;-73
2024/01/03 16:07:15;;;;;;;8.43;2.93;;;9.60;99.90;;;;;;5038969;28;20256;-73
2024/01/03 16:09:40;;;;;;;5.73;2.90;;;9.60;99.90;;;;;;5042162;28;20510;-73
2024/01/03 16:12:07;;;;;;;10.20;3.13;;;9.50;99.90;;;;;;5046088;28;20173;-73
2024/01/03 16:14:35;;;;;;;6.97;2.77;;;9.40;99.90;;;;;;5049883;28;20173;-73
2024/01/03 16:17:01;;;;;;;6.20;2.53;;;9.40;99.90;;;;;;5045896;28;20182;-73
2024/01/03 16:19:27;;;;;;;8.03;2.73;;;9.30;99.90;;;;;;5037913;28;20228;-72
2024/01/03 16:21:52;;;;;;;5.67;2.60;;;9.30;99.90;;;;;;5050000;28;20231;-72
2024/01/03 16:24:18;;;;;;;5.27;2.40;;;9.20;99.90;;;;;;5049917;28;20173;-73
2024/01/03 16:26:48;;;;;;;8.47;2.77;;;9.20;99.90;;;;;;5050967;28;20169;-74
2024/01/03 16:29:15;;;;;;;7.40;2.73;;;9.20;99.90;;;;;;5045395;28;20227;-73
2024/01/03 16:31:54;;;;;;;9.77;3.10;;;9.10;99.90;;;;;;5051163;28;20243;-74
2024/01/03 16:34:25;;;;;;;8.13;2.73;;;9.10;99.90;;;;;;5051154;28;20177;-74
2024/01/03 16:36:53;;;;;;;7.57;2.70;;;9.10;99.90;;;;;;5043640;28;20178;-76
2024/01/03 16:39:20;;;;;;;4.33;2.27;;;9.00;99.90;;;;;;5031168;28;20205;-75
2024/01/03 16:41:48;;;;;;;4.63;2.23;;;9.10;99.90;;;;;;5031206;28;20182;-75
2024/01/03 16:44:13;;;;;;;5.57;2.23;;;9.00;99.90;;;;;;5031257;28;20281;-74
2024/01/03 16:46:39;;;;;;;5.33;2.23;;;9.00;99.90;;;;;;5033700;28;20644;-74
2024/01/03 16:49:04;;;;;;;5.40;2.40;;;9.00;99.90;;;;;;5079380;28;20205;-74
2024/01/03 16:51:30;;;;;;;3.90;1.90;;;9.00;99.90;;;;;;5034328;28;20232;-74
2024/01/03 16:53:56;;;;;;;5.00;2.30;;;9.00;99.90;;;;;;5031032;28;20174;-75
2024/01/03 16:56:21;;;;;;;6.60;2.53;;;9.00;99.90;;;;;;5036278;28;20189;-76
2024/01/03 16:58:47;;;;;;;5.77;2.37;;;8.90;99.90;;;;;;5042840;28;20181;-75
2024/01/03 17:01:13;;;;;;;4.20;1.90;;;8.90;99.90;;;;;;5050765;28;20173;-77
2024/01/03 17:03:39;;;;;;;4.17;2.10;;;9.00;99.90;;;;;;5043214;28;20169;-76
2024/01/03 17:06:05;;;;;;;5.00;2.20;;;9.00;99.90;;;;;;5043938;28;20189;-74
2024/01/03 17:08:33;;;;;;;5.93;2.33;;;9.00;99.90;;;;;;5031023;28;20170;-74
2024/01/03 17:10:58;;;;;;;6.77;2.40;;;9.10;99.90;;;;;;5036865;28;20251;-74
2024/01/03 17:13:27;;;;;;;4.67;2.20;;;9.10;99.90;;;;;;5035916;28;20698;-74
2024/01/03 17:15:52;;;;;;;6.70;2.57;;;9.10;99.90;;;;;;5050474;28;20185;-75
2024/01/03 17:18:18;;;;;;;4.27;2.40;;;9.20;99.90;;;;;;5050600;28;20208;-75
2024/01/03 17:20:44;;;;;;;3.20;2.27;;;9.10;99.90;;;;;;5050581;28;20177;-75
2024/01/03 17:23:10;;;;;;;4.30;2.67;;;9.10;99.90;;;;;;5049096;28;20197;-74
2024/01/03 17:25:36;;;;;;;5.73;3.00;;;9.20;99.90;;;;;;5050644;28;20252;-74
2024/01/03 17:28:01;;;;;;;6.87;3.00;;;9.20;99.90;;;;;;5031825;28;20635;-74
2024/01/03 17:30:27;;;;;;;5.13;2.90;;;9.20;99.90;;;;;;5030615;28;20275;-74
2024/01/03 17:32:53;;;;;;;6.23;3.20;;;9.20;99.90;;;;;;5030649;28;20166;-74
2024/01/03 17:35:18;;;;;;;8.63;3.33;;;9.20;99.90;;;;;;5030495;28;20640;-74
2024/01/03 17:37:44;;;;;;;5.63;3.03;;;9.20;99.90;;;;;;5032706;28;20174;-74
2024/01/03 17:40:11;;;;;;;6.53;3.03;;;9.20;99.90;;;;;;5044670;28;20176;-74
2024/01/03 17:42:37;;;;;;;3.87;2.77;;;9.10;99.90;;;;;;5043113;28;20188;-74
2024/01/03 17:45:03;;;;;;;4.83;2.50;;;9.20;99.90;;;;;;5034162;28;20170;-74
2024/01/03 17:47:29;;;;;;;6.93;2.83;;;9.10;99.90;;;;;;5034448;28;20625;-74
2024/01/03 17:49:57;;;;;;;6.57;2.67;;;9.50;99.90;;;;;;5034206;28;20304;-75
2024/01/03 17:52:23;;;;;;;5.47;2.67;;;9.20;99.90;;;;;;5034170;28;20477;-76
2024/01/03 17:54:49;;;;;;;4.97;2.50;;;9.20;99.90;;;;;;5034121;28;20182;-76
2024/01/03 17:57:15;;;;;;;4.80;2.60;;;9.30;99.90;;;;;;5033924;28;20193;-76
2024/01/03 17:59:40;;;;;;;4.37;2.60;;;9.20;99.90;;;;;;5034033;28;20170;-76
2024/01/03 18:02:06;;;;;;;5.47;2.80;;;9.30;99.90;;;;;;5045465;28;20779;-76
2024/01/03 18:04:32;;;;;;;7.90;3.30;;;9.30;99.90;;;;;;5053827;28;20172;-76
2024/01/03 18:06:57;;;;;;;4.33;3.20;;;9.30;99.90;;;;;;5054123;28;20177;-75
2024/01/03 18:09:25;;;;;;;5.37;3.40;;;9.30;99.90;;;;;;5053801;28;20690;-75
2024/01/03 18:11:52;;;;;;;4.97;3.40;;;9.30;99.90;;;;;;5052075;28;20247;-74
2024/01/03 18:14:18;;;;;;;5.37;3.23;;;9.30;99.90;;;;;;5053625;28;20177;-74
2024/01/03 18:16:44;;;;;;;6.00;3.40;;;9.30;99.90;;;;;;5047691;28;20262;-77
2024/01/03 18:19:10;;;;;;;7.73;3.47;;;9.40;99.90;;;;;;5033906;28;20182;-75
2024/01/03 18:21:36;;;;;;;6.33;3.57;;;9.30;99.90;;;;;;5038094;28;20197;-77
2024/01/03 18:24:07;;;;;;;5.83;3.37;;;9.30;99.90;;;;;;5034561;28;20585;-80
2024/01/03 18:26:32;;;;;;;7.13;3.40;;;9.20;99.90;;;;;;5033338;28;20178;-76
2024/01/03 18:28:58;;;;;;;4.37;2.90;;;9.10;99.90;;;;;;5033333;28;20180;-76
2024/01/03 18:31:23;;;;;;;7.43;3.43;;;9.10;99.90;;;;;;5033773;28;20232;-77
2024/01/03 18:33:51;;;;;;;6.60;3.43;;;9.00;99.90;;;;;;5065087;28;20640;-77
2024/01/03 18:36:17;;;;;;;7.67;3.43;;;9.00;99.90;;;;;;5033486;28;20182;-77
2024/01/03 18:38:42;;;;;;;6.87;3.37;;;9.00;99.90;;;;;;5038071;28;20174;-77
2024/01/03 18:41:08;;;;;;;5.20;3.43;;;9.00;99.90;;;;;;5035250;28;20759;-76
2024/01/03 18:43:34;;;;;;;4.03;3.27;;;9.00;99.90;;;;;;5041709;28;20176;-77
2024/01/03 18:45:59;;;;;;;5.83;3.50;;;9.00;99.90;;;;;;5034976;28;20533;-77
2024/01/03 18:48:25;;;;;;;4.67;3.50;;;9.00;99.90;;;;;;5048591;28;20170;-78
2024/01/03 18:50:51;;;;;;;4.67;3.40;;;9.00;99.90;;;;;;5031178;28;20236;-77
2024/01/03 18:53:17;;;;;;;6.30;3.50;;;9.00;99.90;;;;;;5034367;28;20170;-77
2024/01/03 18:55:42;;;;;;;11.00;4.40;;;8.90;99.90;;;;;;5052712;28;20248;-77
2024/01/03 18:58:08;;;;;;;7.50;3.10;;;8.90;99.90;;;;;;5051739;28;20177;-78
2024/01/03 19:00:35;;;;;;;4.23;2.70;;;8.90;99.90;;;;;;5041296;28;20169;-78
2024/01/03 19:03:03;;;;;;;7.17;3.10;;;8.90;99.90;;;;;;5047402;28;20228;-79
2024/01/03 19:05:29;;;;;;;6.03;2.90;;;8.90;99.90;;;;;;5040064;28;20196;-78
2024/01/03 19:07:55;;;;;;;5.63;3.13;;;8.80;99.90;;;;;;5040855;28;20173;-79
2024/01/03 19:10:21;;;;;;;5.23;3.00;;;8.90;99.90;;;;;;5052619;28;20274;-78
2024/01/03 19:12:47;;;;;;;6.00;3.17;;;8.90;99.90;;;;;;5052644;28;20173;-79
2024/01/03 19:15:13;;;;;;;4.00;3.10;;;8.90;99.90;;;;;;5051644;28;20177;-77
2024/01/03 19:17:38;;;;;;;5.87;3.37;;;8.90;99.90;;;;;;5052912;28;20161;-77
2024/01/03 19:20:05;;;;;;;3.17;2.80;;;9.00;99.90;;;;;;5052415;28;20173;-76
2024/01/03 19:22:30;;;;;;;3.97;2.90;;;8.90;99.90;;;;;;5042015;28;20174;-77
2024/01/03 19:24:56;;;;;;;4.47;2.80;;;8.90;99.90;;;;;;5032345;28;20177;-76
2024/01/03 19:27:22;;;;;;;7.90;3.23;;;8.90;99.90;;;;;;5032587;28;20178;-76
2024/01/03 19:29:49;;;;;;;9.23;3.27;;;8.90;99.90;;;;;;5032549;28;20169;-79
2024/01/03 19:32:15;;;;;;;5.77;3.00;;;8.80;99.90;;;;;;5036886;28;20540;-78
2024/01/03 19:34:40;;;;;;;3.93;2.50;;;8.80;99.90;;;;;;5052260;28;20173;-77
2024/01/03 19:37:07;;;;;;;4.60;2.43;;;8.80;99.90;;;;;;5041896;28;20263;-77
2024/01/03 19:39:33;;;;;;;4.57;2.30;;;8.80;99.90;;;;;;5031957;28;20190;-76
2024/01/03 19:42:00;;;;;;;5.07;2.40;;;8.70;99.90;;;;;;5032382;28;20173;-76
2024/01/03 19:44:25;;;;;;;4.13;2.37;;;8.70;99.90;;;;;;5032091;28;20174;-77
2024/01/03 19:46:51;;;;;;;4.23;2.20;;;8.60;99.90;;;;;;5035964;28;20193;-77
2024/01/03 19:49:17;;;;;;;4.50;2.40;;;8.60;99.90;;;;;;5051895;28;20219;-77
2024/01/03 19:51:43;;;;;;;4.80;2.13;;;8.60;99.90;;;;;;5043536;28;20606;-77
2024/01/03 19:54:09;;;;;;;4.47;2.20;;;8.60;99.90;;;;;;5030299;28;20210;-77
2024/01/03 19:56:40;;;;;;;4.10;2.27;;;8.60;99.90;;;;;;5037637;28;20176;-78
2024/01/03 19:59:06;;;;;;;5.30;2.40;;;8.60;99.90;;;;;;5051511;28;20276;-77
2024/01/03 20:01:31;;;;;;;3.50;2.00;;;8.50;99.90;;;;;;5050389;28;20263;-76
2024/01/03 20:03:57;;;;;;;5.50;2.17;;;8.50;99.90;;;;;;5038565;28;20265;-78
2024/01/03 20:06:23;;;;;;;3.03;1.87;;;8.50;99.90;;;;;;5031993;28;20213;-78
2024/01/03 20:08:50;;;;;;;6.47;2.47;;;8.40;99.90;;;;;;5047176;28;20223;-79
2024/01/03 20:11:17;;;;;;;3.40;2.00;;;8.50;99.90;;;;;;5050834;28;20228;-80
2024/01/03 20:13:42;;;;;;;4.47;2.20;;;8.50;99.90;;;;;;5050796;28;20679;-76
2024/01/03 20:16:08;;;;;;;4.63;2.00;;;8.50;99.90;;;;;;5045838;28;20260;-76
2024/01/03 20:18:35;;;;;;;3.27;1.87;;;8.50;99.90;;;;;;5051005;28;20197;-76
2024/01/03 20:21:01;;;;;;;5.00;2.13;;;8.40;99.90;;;;;;5050205;28;20204;-78
2024/01/03 20:23:27;;;;;;;4.53;2.00;;;8.50;99.90;;;;;;5043096;28;20168;-78
2024/01/03 20:25:53;;;;;;;6.30;2.20;;;8.50;99.90;;;;;;5046960;28;20555;-78
2024/01/03 20:28:18;;;;;;;5.83;2.20;;;8.50;99.90;;;;;;5037510;28;20255;-75
2024/01/03 20:30:44;;;;;;;4.80;1.80;;;8.50;99.90;;;;;;5043904;28;20346;-77
2024/01/03 20:33:10;;;;;;;4.60;1.90;;;8.50;99.90;;;;;;5050685;28;20161;-77
2024/01/03 20:35:36;;;;;;;5.53;1.90;;;8.50;99.90;;;;;;5050530;28;20509;-77
2024/01/03 20:38:02;;;;;;;4.07;1.97;;;8.40;99.90;;;;;;5050670;28;20260;-76
2024/01/03 20:40:27;;;;;;;6.53;2.20;;;8.50;99.90;;;;;;5045078;28;20165;-78
2024/01/03 20:42:53;;;;;;;4.00;1.87;;;8.50;99.90;;;;;;5049421;28;20624;-76
2024/01/03 20:45:19;;;;;;;6.03;1.97;;;8.40;99.90;;;;;;5050114;28;20165;-77
2024/01/03 20:47:45;;;;;;;4.77;2.10;;;8.50;99.90;;;;;;5039243;28;20173;-76
2024/01/03 20:50:10;;;;;;;6.53;2.10;;;8.50;99.90;;;;;;5043886;28;20343;-77
2024/01/03 20:52:36;;;;;;;6.43;2.23;;;8.50;99.90;;;;;;5049059;28;20263;-78
2024/01/03 20:55:02;;;;;;;4.67;2.00;;;8.50;99.90;;;;;;5050905;28;20710;-77
2024/01/03 20:57:28;;;;;;;2.93;1.90;;;8.50;99.90;;;;;;5046869;28;20553;-76
2024/01/03 20:59:53;;;;;;;2.57;1.77;;;8.50;99.90;;;;;;5044226;28;20192;-80
2024/01/03 21:02:19;;;;;;;4.00;1.97;;;8.50;99.90;;;;;;5031312;28;20705;-77
2024/01/03 21:04:45;;;;;;;3.20;1.70;;;8.50;99.90;;;;;;5031223;28;20174;-77
2024/01/03 21:07:11;;;;;;;5.23;1.90;;;8.50;99.90;;;;;;5033709;28;20554;-77
2024/01/03 21:09:38;;;;;;;4.33;1.80;;;8.50;99.90;;;;;;5030802;28;20170;-77
2024/01/03 21:12:05;;;;;;;4.13;1.87;;;8.50;99.90;;;;;;5031528;28;20213;-77
2024/01/03 21:14:31;;;;;;;4.43;1.80;;;8.50;99.90;;;;;;5034884;28;20213;-76
2024/01/03 21:16:57;;;;;;;4.63;1.80;;;8.50;99.90;;;;;;5041041;28;20220;-77
2024/01/03 21:19:23;;;;;;;5.97;2.00;;;8.50;99.90;;;;;;5034705;28;20170;-76
2024/01/03 21:21:49;;;;;;;5.00;1.90;;;8.50;99.90;;;;;;5034490;28;20660;-77
2024/01/03 21:24:14;;;;;;;3.73;1.60;;;8.50;99.90;;;;;;5034843;28;20256;-78
2024/01/03 21:26:42;;;;;;;5.13;1.70;;;8.50;99.90;;;;;;5052551;28;20252;-79
2024/01/03 21:29:08;;;;;;;3.30;1.37;;;8.50;99.90;;;;;;5054420;28;20177;-79
2024/01/03 21:31:34;;;;;;;4.63;1.70;;;8.50;99.90;;;;;;5054242;28;20209;-79
2024/01/03 21:33:59;;;;;;;4.23;1.57;;;8.40;99.90;;;;;;5052645;28;20234;-77
2024/01/03 21:36:25;;;;;;;5.13;1.60;;;8.50;99.90;;;;;;5054123;28;20188;-77
2024/01/03 21:38:51;;;;;;;3.97;1.67;;;8.50;99.90;;;;;;5054365;28;20620;-78
2024/01/03 21:41:17;;;;;;;4.27;1.50;;;8.50;99.90;;;;;;5053897;28;20196;-78
2024/01/03 21:43:43;;;;;;;3.47;1.53;;;8.60;99.90;;;;;;5053188;28;20177;-78
2024/01/03 21:46:10;;;;;;;5.63;1.67;;;8.60;99.90;;;;;;5053502;28;20698;-78
2024/01/03 21:48:36;;;;;;;4.40;1.63;;;8.60;99.90;;;;;;5049946;28;20224;-78
2024/01/03 21:51:02;;;;;;;4.50;1.63;;;8.70;99.90;;;;;;5038848;28;20376;-76
2024/01/03 21:53:28;;;;;;;3.93;1.50;;;8.70;99.90;;;;;;5039951;28;20215;-77
2024/01/03 21:55:55;;;;;;;4.30;1.70;;;8.70;99.90;;;;;;5053608;28;20169;-77
2024/01/03 21:58:20;;;;;;;3.80;1.80;;;8.80;99.90;;;;;;5053887;28;20169;-76
2024/01/03 22:00:46;;;;;;;4.23;1.47;;;8.70;99.90;;;;;;5052227;28;20186;-77
2024/01/03 22:03:12;;;;;;;3.43;1.60;;;8.70;99.90;;;;;;5053373;28;20187;-76
2024/01/03 22:05:38;;;;;;;2.87;1.70;;;8.70;99.90;;;;;;5053572;28;20624;-76
2024/01/03 22:08:04;;;;;;;4.17;2.10;;;8.70;99.90;;;;;;5053625;28;20173;-77
2024/01/03 22:10:30;;;;;;;3.70;1.97;;;8.70;99.90;;;;;;5053219;28;20197;-78
2024/01/03 22:12:56;;;;;;;3.70;1.83;;;8.60;99.90;;;;;;5052014;28;20689;-77
2024/01/03 22:15:21;;;;;;;4.07;2.07;;;8.60;99.90;;;;;;5053651;28;20682;-79
2024/01/03 22:17:47;;;;;;;2.43;1.80;;;8.60;99.90;;;;;;5049234;28;20177;-76
2024/01/03 22:20:14;;;;;;;3.40;2.03;;;8.60;99.90;;;;;;5033586;28;20216;-76
2024/01/03 22:22:40;;;;;;;2.00;1.70;;;8.60;99.90;;;;;;5038148;28;20173;-77
2024/01/03 22:25:10;;;;;;;3.20;2.10;;;8.60;99.90;;;;;;5053292;28;20165;-77
2024/01/03 22:27:37;;;;;;;2.80;2.00;;;8.60;99.90;;;;;;5053457;28;20169;-77
2024/01/03 22:30:04;;;;;;;2.97;2.03;;;8.60;99.90;;;;;;5043042;28;20592;-77
2024/01/03 22:32:29;;;;;;;3.57;2.27;;;8.60;99.90;;;;;;5044265;28;20186;-77
2024/01/03 22:34:55;;;;;;;3.87;2.23;;;8.60;99.90;;;;;;5033863;28;20170;-76
2024/01/03 22:37:21;;;;;;;2.87;2.07;;;8.60;99.90;;;;;;5041688;28;20260;-78
2024/01/03 22:39:47;;;;;;;2.73;2.23;;;8.60;99.90;;;;;;5050310;28;20170;-76
2024/01/03 22:42:12;;;;;;;3.27;2.00;;;8.60;99.90;;;;;;5052428;28;20753;-78
2024/01/03 22:44:38;;;;;;;3.13;2.13;;;8.60;99.90;;;;;;5052918;28;20210;-76
2024/01/03 22:47:06;;;;;;;3.43;2.10;;;8.60;99.90;;;;;;5038607;28;20175;-76
2024/01/03 22:49:38;;;;;;;4.17;2.40;;;8.70;99.90;;;;;;5033256;28;20261;-76
2024/01/03 22:52:06;;;;;;;3.60;2.13;;;8.70;99.90;;;;;;5033133;28;20275;-75
2024/01/03 22:54:33;;;;;;;5.27;2.57;;;8.70;99.90;;;;;;5045170;28;20219;-76
2024/01/03 22:56:58;;;;;;;3.43;2.00;;;8.70;99.90;;;;;;5054122;28;20176;-76
2024/01/03 22:59:24;;;;;;;4.33;2.27;;;8.70;99.90;;;;;;5052847;28;20178;-75
2024/01/03 23:01:50;;;;;;;4.20;1.90;;;8.90;99.90;;;;;;5052891;28;20188;-75
2024/01/03 23:04:16;;;;;;;4.27;1.80;;;8.90;99.90;;;;;;5050095;28;20666;-75
2024/01/03 23:06:42;;;;;;;4.90;2.00;;;8.90;99.90;;;;;;5042838;28;20192;-75
2024/01/03 23:09:08;;;;;;;3.53;2.00;;;8.90;99.90;;;;;;5052683;28;20173;-74
2024/01/03 23:11:35;;;;;;;5.00;2.03;;;8.90;99.90;;;;;;5046784;28;20220;-74
2024/01/03 23:14:00;;;;;;;4.03;1.90;;;9.00;99.90;;;;;;5033003;28;20204;-74
2024/01/03 23:16:26;;;;;;;6.93;2.53;;;9.00;99.90;;;;;;5036410;28;20679;-74
2024/01/03 23:18:53;;;;;;;6.17;2.33;;;9.00;99.90;;;;;;5045853;28;20235;-74
2024/01/03 23:21:20;;;;;;;5.13;2.30;;;9.00;99.90;;;;;;5038747;28;20202;-75
2024/01/03 23:23:46;;;;;;;5.17;2.43;;;8.90;99.90;;;;;;5052040;28;20205;-74
2024/01/03 23:26:12;;;;;;;5.10;2.47;;;8.90;99.90;;;;;;5050689;28;20200;-74
2024/01/03 23:28:41;;;;;;;4.73;2.50;;;9.00;99.90;;;;;;5052347;28;20700;-74
2024/01/03 23:31:07;;;;;;;6.43;3.00;;;9.00;99.90;;;;;;5051969;28;20209;-75
2024/01/03 23:33:33;;;;;;;4.33;2.50;;;9.00;99.90;;;;;;5052229;28;20173;-74
2024/01/03 23:35:59;;;;;;;6.10;3.10;;;9.10;99.90;;;;;;5051223;28;20165;-75
2024/01/03 23:38:25;;;;;;;4.63;3.00;;;9.00;99.90;;;;;;5052022;28;20200;-73
2024/01/03 23:40:51;;;;;;;5.73;3.00;;;9.00;99.90;;;;;;5052090;28;20583;-74
2024/01/03 23:43:17;;;;;;;13.13;4.03;;;9.00;99.90;;;;;;5051804;28;20560;-73
2024/01/03 23:45:42;;;;;;;8.40;3.63;;;9.00;99.90;;;;;;5051895;28;20169;-73
2024/01/03 23:48:08;;;;;;;5.17;3.37;;;8.90;99.90;;;;;;5051872;28;20652;-74
2024/01/03 23:50:34;;;;;;;7.20;3.50;;;9.00;99.90;;;;;;5051859;28;20232;-74
2024/01/03 23:53:02;;;;;;;6.53;3.30;;;9.00;99.90;;;;;;5051744;28;20209;-73
2024/01/03 23:55:28;;;;;;;7.03;3.47;;;9.00;99.90;;;;;;5034370;28;20226;-73
2024/01/03 23:57:53;;;;;;;8.00;3.27;;;9.00;99.90;;;;;;5051480;28;20165;-74
